sensor_id;sensor_type;location;lat;lon;timestamp;temperature;humidity
19781;DHT22;10050;55.492;13.506;2023-12-20T00:01:04;4.10;99.90
19781;DHT22;10050;55.492;13.506;2023-12-20T00:03:30;4.10;99.90
19781;DHT22;10050;55.492;13.506;2023-12-20T00:05:56;4.10;99.90
19781;DHT22;10050;55.492;13.506;2023-12-20T00:08:21;4.00;99.90
19781;DHT22;10050;55.492;13.506;2023-12-20T00:10:47;4.00;99.90
19781;DHT22;10050;55.492;13.506;2023-12-20T00:13:12;4.00;99.90
19781;DHT22;10050;55.492;13.506;2023-12-20T00:15:38;4.00;99.90
19781;DHT22;10050;55.492;13.506;2023-12-20T00:18:04;4.00;99.90
19781;DHT22;10050;55.492;13.506;2023-12-20T00:20:29;4.00;99.90
19781;DHT22;10050;55.492;13.506;2023-12-20T00:22:58;4.10;99.90
19781;DHT22;10050;55.492;13.506;2023-12-20T00:25:24;4.10;99.90
19781;DHT22;10050;55.492;13.506;2023-12-20T00:27:50;4.10;99.90
19781;DHT22;10050;55.492;13.506;2023-12-20T00:30:16;4.10;99.90
19781;DHT22;10050;55.492;13.506;2023-12-20T00:32:41;4.00;99.90
19781;DHT22;10050;55.492;13.506;2023-12-20T00:35:18;4.00;99.90
19781;DHT22;10050;55.492;13.506;2023-12-20T00:37:44;3.90;99.90
19781;DHT22;10050;55.492;13.506;2023-12-20T00:40:10;3.90;99.90
19781;DHT22;10050;55.492;13.506;2023-12-20T00:42:35;3.80;99.90
19781;DHT22;10050;55.492;13.506;2023-12-20T00:45:01;3.90;99.90
19781;DHT22;10050;55.492;13.506;2023-12-20T00:47:28;3.80;99.90
19781;DHT22;10050;55.492;13.506;2023-12-20T00:49:53;3.80;99.90
19781;DHT22;10050;55.492;13.506;2023-12-20T00:52:19;3.70;99.90
19781;DHT22;10050;55.492;13.506;2023-12-20T00:54:45;3.70;99.90
19781;DHT22;10050;55.492;13.506;2023-12-20T00:57:10;3.70;99.90
19781;DHT22;10050;55.492;13.506;2023-12-20T00:59:36;3.70;99.90
19781;DHT22;10050;55.492;13.506;2023-12-20T01:02:02;3.60;99.90
19781;DHT22;10050;55.492;13.506;2023-12-20T01:04:27;3.60;99.90
19781;DHT22;10050;55.492;13.506;2023-12-20T01:06:53;3.60;99.90
19781;DHT22;10050;55.492;13.506;2023-12-20T01:09:19;3.60;99.90
19781;DHT22;10050;55.492;13.506;2023-12-20T01:11:45;3.60;99.90
19781;DHT22;10050;55.492;13.506;2023-12-20T01:14:12;3.60;99.90
19781;DHT22;10050;55.492;13.506;2023-12-20T01:16:37;3.60;99.90
19781;DHT22;10050;55.492;13.506;2023-12-20T01:19:03;3.60;99.90
19781;DHT22;10050;55.492;13.506;2023-12-20T01:21:29;3.60;99.90
19781;DHT22;10050;55.492;13.506;2023-12-20T01:23:54;3.70;99.90
19781;DHT22;10050;55.492;13.506;2023-12-20T01:26:20;3.80;99.90
19781;DHT22;10050;55.492;13.506;2023-12-20T01:28:45;3.80;99.90
19781;DHT22;10050;55.492;13.506;2023-12-20T01:31:11;3.80;99.90
19781;DHT22;10050;55.492;13.506;2023-12-20T01:33:36;3.90;99.90
19781;DHT22;10050;55.492;13.506;2023-12-20T01:36:03;3.90;99.90
19781;DHT22;10050;55.492;13.506;2023-12-20T01:38:29;3.90;99.90
19781;DHT22;10050;55.492;13.506;2023-12-20T01:40:54;4.00;99.90
19781;DHT22;10050;55.492;13.506;2023-12-20T01:43:20;4.00;99.90
19781;DHT22;10050;55.492;13.506;2023-12-20T01:45:47;4.00;99.90
19781;DHT22;10050;55.492;13.506;2023-12-20T01:48:13;4.00;99.90
19781;DHT22;10050;55.492;13.506;2023-12-20T01:50:40;4.00;99.90
19781;DHT22;10050;55.492;13.506;2023-12-20T01:53:08;4.00;99.90
19781;DHT22;10050;55.492;13.506;2023-12-20T01:55:37;4.00;99.90
19781;DHT22;10050;55.492;13.506;2023-12-20T01:58:05;4.00;99.90
19781;DHT22;10050;55.492;13.506;2023-12-20T02:00:31;4.00;99.90
19781;DHT22;10050;55.492;13.506;2023-12-20T02:03:00;4.00;99.90
19781;DHT22;10050;55.492;13.506;2023-12-20T02:05:26;4.10;99.90
19781;DHT22;10050;55.492;13.506;2023-12-20T02:07:53;4.10;99.90
19781;DHT22;10050;55.492;13.506;2023-12-20T02:10:19;4.20;99.90
19781;DHT22;10050;55.492;13.506;2023-12-20T02:12:44;4.20;99.90
19781;DHT22;10050;55.492;13.506;2023-12-20T02:15:10;4.20;99.90
19781;DHT22;10050;55.492;13.506;2023-12-20T02:17:36;4.20;99.90
19781;DHT22;10050;55.492;13.506;2023-12-20T02:20:03;4.20;99.90
19781;DHT22;10050;55.492;13.506;2023-12-20T02:22:31;4.30;99.90
19781;DHT22;10050;55.492;13.506;2023-12-20T02:24:57;4.30;99.90
19781;DHT22;10050;55.492;13.506;2023-12-20T02:27:23;4.30;99.90
19781;DHT22;10050;55.492;13.506;2023-12-20T02:29:50;4.30;99.90
19781;DHT22;10050;55.492;13.506;2023-12-20T02:32:17;4.30;99.90
19781;DHT22;10050;55.492;13.506;2023-12-20T02:34:42;4.30;99.90
19781;DHT22;10050;55.492;13.506;2023-12-20T02:37:08;4.40;99.90
19781;DHT22;10050;55.492;13.506;2023-12-20T02:39:34;4.30;99.90
19781;DHT22;10050;55.492;13.506;2023-12-20T02:41:59;4.40;99.90
19781;DHT22;10050;55.492;13.506;2023-12-20T02:44:25;4.40;99.90
19781;DHT22;10050;55.492;13.506;2023-12-20T02:46:50;4.50;99.90
19781;DHT22;10050;55.492;13.506;2023-12-20T02:49:16;4.40;99.90
19781;DHT22;10050;55.492;13.506;2023-12-20T02:51:41;4.50;99.90
19781;DHT22;10050;55.492;13.506;2023-12-20T02:54:07;4.40;99.90
19781;DHT22;10050;55.492;13.506;2023-12-20T02:56:33;4.50;99.90
19781;DHT22;10050;55.492;13.506;2023-12-20T02:58:59;4.50;99.90
19781;DHT22;10050;55.492;13.506;2023-12-20T03:01:24;4.50;99.90
19781;DHT22;10050;55.492;13.506;2023-12-20T03:03:50;4.50;99.90
19781;DHT22;10050;55.492;13.506;2023-12-20T03:06:17;4.50;99.90
19781;DHT22;10050;55.492;13.506;2023-12-20T03:08:44;4.50;99.90
19781;DHT22;10050;55.492;13.506;2023-12-20T03:11:09;4.50;99.90
19781;DHT22;10050;55.492;13.506;2023-12-20T03:13:35;4.50;99.90
19781;DHT22;10050;55.492;13.506;2023-12-20T03:16:00;4.50;99.90
19781;DHT22;10050;55.492;13.506;2023-12-20T03:18:26;4.50;99.90
19781;DHT22;10050;55.492;13.506;2023-12-20T03:20:53;4.60;99.90
19781;DHT22;10050;55.492;13.506;2023-12-20T03:23:19;4.60;99.90
19781;DHT22;10050;55.492;13.506;2023-12-20T03:25:44;4.60;99.90
19781;DHT22;10050;55.492;13.506;2023-12-20T03:28:10;4.60;99.90
19781;DHT22;10050;55.492;13.506;2023-12-20T03:30:35;4.60;99.90
19781;DHT22;10050;55.492;13.506;2023-12-20T03:33:01;4.70;99.90
19781;DHT22;10050;55.492;13.506;2023-12-20T03:35:26;4.70;99.90
19781;DHT22;10050;55.492;13.506;2023-12-20T03:37:52;4.70;99.90
19781;DHT22;10050;55.492;13.506;2023-12-20T03:40:18;4.70;99.90
19781;DHT22;10050;55.492;13.506;2023-12-20T03:42:43;4.70;99.90
19781;DHT22;10050;55.492;13.506;2023-12-20T03:45:09;4.60;99.90
19781;DHT22;10050;55.492;13.506;2023-12-20T03:47:35;4.70;99.90
19781;DHT22;10050;55.492;13.506;2023-12-20T03:50:00;4.70;99.90
19781;DHT22;10050;55.492;13.506;2023-12-20T03:52:26;4.70;99.90
19781;DHT22;10050;55.492;13.506;2023-12-20T03:54:51;4.60;99.90
19781;DHT22;10050;55.492;13.506;2023-12-20T03:57:17;4.70;99.90
19781;DHT22;10050;55.492;13.506;2023-12-20T03:59:42;4.70;99.90
19781;DHT22;10050;55.492;13.506;2023-12-20T04:02:08;4.70;99.90
19781;DHT22;10050;55.492;13.506;2023-12-20T04:04:34;4.70;99.90
19781;DHT22;10050;55.492;13.506;2023-12-20T04:06:59;4.80;99.90
19781;DHT22;10050;55.492;13.506;2023-12-20T04:09:25;4.80;99.90
19781;DHT22;10050;55.492;13.506;2023-12-20T04:11:50;4.80;99.90
19781;DHT22;10050;55.492;13.506;2023-12-20T04:14:16;4.80;99.90
19781;DHT22;10050;55.492;13.506;2023-12-20T04:16:42;4.80;99.90
19781;DHT22;10050;55.492;13.506;2023-12-20T04:19:08;4.80;99.90
19781;DHT22;10050;55.492;13.506;2023-12-20T04:21:33;4.80;99.90
19781;DHT22;10050;55.492;13.506;2023-12-20T04:23:59;4.80;99.90
19781;DHT22;10050;55.492;13.506;2023-12-20T04:26:24;4.80;99.90
19781;DHT22;10050;55.492;13.506;2023-12-20T04:28:50;4.80;99.90
19781;DHT22;10050;55.492;13.506;2023-12-20T04:31:15;4.90;99.90
19781;DHT22;10050;55.492;13.506;2023-12-20T04:33:41;4.90;99.90
19781;DHT22;10050;55.492;13.506;2023-12-20T04:36:07;4.90;99.90
19781;DHT22;10050;55.492;13.506;2023-12-20T04:38:34;4.90;99.90
19781;DHT22;10050;55.492;13.506;2023-12-20T04:41:00;4.90;99.90
19781;DHT22;10050;55.492;13.506;2023-12-20T04:43:25;4.90;99.90
19781;DHT22;10050;55.492;13.506;2023-12-20T04:45:51;4.90;99.90
19781;DHT22;10050;55.492;13.506;2023-12-20T04:48:16;4.90;99.90
19781;DHT22;10050;55.492;13.506;2023-12-20T04:50:42;4.90;99.90
19781;DHT22;10050;55.492;13.506;2023-12-20T04:53:08;4.90;99.90
19781;DHT22;10050;55.492;13.506;2023-12-20T04:55:33;4.90;99.90
19781;DHT22;10050;55.492;13.506;2023-12-20T04:57:59;5.00;99.90
19781;DHT22;10050;55.492;13.506;2023-12-20T05:00:24;5.00;99.90
19781;DHT22;10050;55.492;13.506;2023-12-20T05:02:50;5.00;99.90
19781;DHT22;10050;55.492;13.506;2023-12-20T05:05:16;5.00;99.90
19781;DHT22;10050;55.492;13.506;2023-12-20T05:07:43;5.00;99.90
19781;DHT22;10050;55.492;13.506;2023-12-20T05:10:09;5.00;99.90
19781;DHT22;10050;55.492;13.506;2023-12-20T05:12:35;5.00;99.90
19781;DHT22;10050;55.492;13.506;2023-12-20T05:15:01;5.00;99.90
19781;DHT22;10050;55.492;13.506;2023-12-20T05:17:26;5.00;99.90
19781;DHT22;10050;55.492;13.506;2023-12-20T05:19:52;5.00;99.90
19781;DHT22;10050;55.492;13.506;2023-12-20T05:22:19;5.10;99.90
19781;DHT22;10050;55.492;13.506;2023-12-20T05:24:45;5.10;99.90
19781;DHT22;10050;55.492;13.506;2023-12-20T05:27:11;5.10;99.90
19781;DHT22;10050;55.492;13.506;2023-12-20T05:29:37;5.10;99.90
19781;DHT22;10050;55.492;13.506;2023-12-20T05:32:03;5.20;99.90
19781;DHT22;10050;55.492;13.506;2023-12-20T05:34:30;5.20;99.90
19781;DHT22;10050;55.492;13.506;2023-12-20T05:36:57;5.10;99.90
19781;DHT22;10050;55.492;13.506;2023-12-20T05:39:22;5.20;99.90
19781;DHT22;10050;55.492;13.506;2023-12-20T05:41:48;5.20;99.90
19781;DHT22;10050;55.492;13.506;2023-12-20T05:44:14;5.20;99.90
19781;DHT22;10050;55.492;13.506;2023-12-20T05:46:39;5.20;99.90
19781;DHT22;10050;55.492;13.506;2023-12-20T05:49:05;5.20;99.90
19781;DHT22;10050;55.492;13.506;2023-12-20T05:51:31;5.20;99.90
19781;DHT22;10050;55.492;13.506;2023-12-20T05:53:57;5.20;99.90
19781;DHT22;10050;55.492;13.506;2023-12-20T05:56:22;5.20;99.90
19781;DHT22;10050;55.492;13.506;2023-12-20T05:58:48;5.20;99.90
19781;DHT22;10050;55.492;13.506;2023-12-20T06:01:16;5.20;99.90
19781;DHT22;10050;55.492;13.506;2023-12-20T06:03:42;5.20;99.90
19781;DHT22;10050;55.492;13.506;2023-12-20T06:06:08;5.30;99.90
19781;DHT22;10050;55.492;13.506;2023-12-20T06:08:34;5.30;99.90
19781;DHT22;10050;55.492;13.506;2023-12-20T06:11:00;5.20;99.90
19781;DHT22;10050;55.492;13.506;2023-12-20T06:13:25;5.30;99.90
19781;DHT22;10050;55.492;13.506;2023-12-20T06:15:53;5.30;99.90
19781;DHT22;10050;55.492;13.506;2023-12-20T06:18:19;5.30;99.90
19781;DHT22;10050;55.492;13.506;2023-12-20T06:20:45;5.30;99.90
19781;DHT22;10050;55.492;13.506;2023-12-20T06:23:10;5.20;99.90
19781;DHT22;10050;55.492;13.506;2023-12-20T06:25:36;5.30;99.90
19781;DHT22;10050;55.492;13.506;2023-12-20T06:28:01;5.30;99.90
19781;DHT22;10050;55.492;13.506;2023-12-20T06:30:27;5.30;99.90
19781;DHT22;10050;55.492;13.506;2023-12-20T06:32:54;5.30;99.90
19781;DHT22;10050;55.492;13.506;2023-12-20T06:35:20;5.30;99.90
19781;DHT22;10050;55.492;13.506;2023-12-20T06:37:45;5.30;99.90
19781;DHT22;10050;55.492;13.506;2023-12-20T06:40:11;5.20;99.90
19781;DHT22;10050;55.492;13.506;2023-12-20T06:42:37;5.20;99.90
19781;DHT22;10050;55.492;13.506;2023-12-20T06:45:03;5.20;99.90
19781;DHT22;10050;55.492;13.506;2023-12-20T06:47:29;5.20;99.90
19781;DHT22;10050;55.492;13.506;2023-12-20T06:49:54;5.20;99.90
19781;DHT22;10050;55.492;13.506;2023-12-20T06:52:20;5.20;99.90
19781;DHT22;10050;55.492;13.506;2023-12-20T06:54:45;5.10;99.90
19781;DHT22;10050;55.492;13.506;2023-12-20T06:57:11;5.10;99.90
19781;DHT22;10050;55.492;13.506;2023-12-20T06:59:41;5.10;99.90
19781;DHT22;10050;55.492;13.506;2023-12-20T07:02:06;5.10;99.90
19781;DHT22;10050;55.492;13.506;2023-12-20T07:04:32;5.10;99.90
19781;DHT22;10050;55.492;13.506;2023-12-20T07:06:57;5.10;99.90
19781;DHT22;10050;55.492;13.506;2023-12-20T07:09:26;5.10;99.90
19781;DHT22;10050;55.492;13.506;2023-12-20T07:11:52;5.00;99.90
19781;DHT22;10050;55.492;13.506;2023-12-20T07:14:18;5.10;99.90
19781;DHT22;10050;55.492;13.506;2023-12-20T07:16:43;5.00;99.90
19781;DHT22;10050;55.492;13.506;2023-12-20T07:19:09;5.00;99.90
19781;DHT22;10050;55.492;13.506;2023-12-20T07:21:34;5.00;99.90
19781;DHT22;10050;55.492;13.506;2023-12-20T07:24:00;5.00;99.90
19781;DHT22;10050;55.492;13.506;2023-12-20T07:26:26;5.00;99.90
19781;DHT22;10050;55.492;13.506;2023-12-20T07:28:51;5.00;99.90
19781;DHT22;10050;55.492;13.506;2023-12-20T07:31:17;5.00;99.90
19781;DHT22;10050;55.492;13.506;2023-12-20T07:33:43;5.00;99.90
19781;DHT22;10050;55.492;13.506;2023-12-20T07:36:08;5.00;99.90
19781;DHT22;10050;55.492;13.506;2023-12-20T07:38:34;5.00;99.90
19781;DHT22;10050;55.492;13.506;2023-12-20T07:41:00;5.00;99.90
19781;DHT22;10050;55.492;13.506;2023-12-20T07:43:25;5.00;99.90
19781;DHT22;10050;55.492;13.506;2023-12-20T07:45:51;5.00;99.90
19781;DHT22;10050;55.492;13.506;2023-12-20T07:48:17;5.10;99.90
19781;DHT22;10050;55.492;13.506;2023-12-20T07:50:42;5.10;99.90
19781;DHT22;10050;55.492;13.506;2023-12-20T07:53:08;5.00;99.90
19781;DHT22;10050;55.492;13.506;2023-12-20T07:55:33;5.10;99.90
19781;DHT22;10050;55.492;13.506;2023-12-20T07:58:00;5.10;99.90
19781;DHT22;10050;55.492;13.506;2023-12-20T08:00:26;5.10;99.90
19781;DHT22;10050;55.492;13.506;2023-12-20T08:02:51;5.10;99.90
19781;DHT22;10050;55.492;13.506;2023-12-20T08:05:17;5.10;99.90
19781;DHT22;10050;55.492;13.506;2023-12-20T08:07:43;5.10;99.90
19781;DHT22;10050;55.492;13.506;2023-12-20T08:10:09;5.10;99.90
19781;DHT22;10050;55.492;13.506;2023-12-20T08:12:34;5.10;99.90
19781;DHT22;10050;55.492;13.506;2023-12-20T08:15:01;5.20;99.90
19781;DHT22;10050;55.492;13.506;2023-12-20T08:17:26;5.20;99.90
19781;DHT22;10050;55.492;13.506;2023-12-20T08:19:52;5.20;99.90
19781;DHT22;10050;55.492;13.506;2023-12-20T08:22:18;5.10;99.90
19781;DHT22;10050;55.492;13.506;2023-12-20T08:24:43;5.20;99.90
19781;DHT22;10050;55.492;13.506;2023-12-20T08:27:09;5.20;99.90
19781;DHT22;10050;55.492;13.506;2023-12-20T08:29:35;5.20;99.90
19781;DHT22;10050;55.492;13.506;2023-12-20T08:32:01;5.10;99.90
19781;DHT22;10050;55.492;13.506;2023-12-20T08:34:27;5.00;99.90
19781;DHT22;10050;55.492;13.506;2023-12-20T08:36:53;5.00;99.90
19781;DHT22;10050;55.492;13.506;2023-12-20T08:39:19;5.00;99.90
19781;DHT22;10050;55.492;13.506;2023-12-20T08:41:44;5.00;99.90
19781;DHT22;10050;55.492;13.506;2023-12-20T08:44:10;4.90;99.90
19781;DHT22;10050;55.492;13.506;2023-12-20T08:46:36;4.80;99.90
19781;DHT22;10050;55.492;13.506;2023-12-20T08:49:02;4.80;99.90
19781;DHT22;10050;55.492;13.506;2023-12-20T08:51:28;4.90;99.90
19781;DHT22;10050;55.492;13.506;2023-12-20T08:53:54;4.80;99.90
19781;DHT22;10050;55.492;13.506;2023-12-20T08:56:20;4.80;99.90
19781;DHT22;10050;55.492;13.506;2023-12-20T08:58:46;4.80;99.90
19781;DHT22;10050;55.492;13.506;2023-12-20T09:01:13;4.80;99.90
19781;DHT22;10050;55.492;13.506;2023-12-20T09:03:39;4.80;99.90
19781;DHT22;10050;55.492;13.506;2023-12-20T09:06:05;4.80;99.90
19781;DHT22;10050;55.492;13.506;2023-12-20T09:08:31;4.90;99.90
19781;DHT22;10050;55.492;13.506;2023-12-20T09:10:57;4.90;99.90
19781;DHT22;10050;55.492;13.506;2023-12-20T09:13:22;5.30;99.90
19781;DHT22;10050;55.492;13.506;2023-12-20T09:15:57;5.40;99.90
19781;DHT22;10050;55.492;13.506;2023-12-20T09:18:23;5.30;99.90
19781;DHT22;10050;55.492;13.506;2023-12-20T09:20:48;5.20;99.90
19781;DHT22;10050;55.492;13.506;2023-12-20T09:23:14;5.10;99.90
19781;DHT22;10050;55.492;13.506;2023-12-20T09:25:39;5.00;99.90
19781;DHT22;10050;55.492;13.506;2023-12-20T09:28:05;5.10;99.90
19781;DHT22;10050;55.492;13.506;2023-12-20T09:30:31;5.10;99.90
19781;DHT22;10050;55.492;13.506;2023-12-20T09:32:57;5.00;99.90
19781;DHT22;10050;55.492;13.506;2023-12-20T09:35:23;5.10;99.90
19781;DHT22;10050;55.492;13.506;2023-12-20T09:37:49;5.10;99.90
19781;DHT22;10050;55.492;13.506;2023-12-20T09:40:18;5.20;99.90
19781;DHT22;10050;55.492;13.506;2023-12-20T09:42:50;5.20;99.90
19781;DHT22;10050;55.492;13.506;2023-12-20T09:45:20;5.20;99.90
19781;DHT22;10050;55.492;13.506;2023-12-20T09:47:53;5.20;99.90
19781;DHT22;10050;55.492;13.506;2023-12-20T09:50:20;5.40;99.90
19781;DHT22;10050;55.492;13.506;2023-12-20T09:52:52;6.20;99.90
19781;DHT22;10050;55.492;13.506;2023-12-20T09:55:18;7.50;99.90
19781;DHT22;10050;55.492;13.506;2023-12-20T09:57:48;8.70;99.90
19781;DHT22;10050;55.492;13.506;2023-12-20T10:00:14;9.40;99.90
19781;DHT22;10050;55.492;13.506;2023-12-20T10:02:55;9.00;99.90
19781;DHT22;10050;55.492;13.506;2023-12-20T10:05:30;8.50;99.90
19781;DHT22;10050;55.492;13.506;2023-12-20T10:07:56;8.20;99.90
19781;DHT22;10050;55.492;13.506;2023-12-20T10:10:22;7.80;99.90
19781;DHT22;10050;55.492;13.506;2023-12-20T10:13:07;7.70;99.90
19781;DHT22;10050;55.492;13.506;2023-12-20T10:15:35;7.50;99.90
19781;DHT22;10050;55.492;13.506;2023-12-20T10:18:01;7.20;99.90
19781;DHT22;10050;55.492;13.506;2023-12-20T10:20:28;7.10;99.90
19781;DHT22;10050;55.492;13.506;2023-12-20T10:22:58;6.80;99.90
19781;DHT22;10050;55.492;13.506;2023-12-20T10:25:24;6.60;99.90
19781;DHT22;10050;55.492;13.506;2023-12-20T10:27:50;6.50;99.90
19781;DHT22;10050;55.492;13.506;2023-12-20T10:30:33;6.50;99.90
19781;DHT22;10050;55.492;13.506;2023-12-20T10:32:59;6.40;99.90
19781;DHT22;10050;55.492;13.506;2023-12-20T10:35:25;6.30;99.90
19781;DHT22;10050;55.492;13.506;2023-12-20T10:37:55;6.10;99.90
19781;DHT22;10050;55.492;13.506;2023-12-20T10:40:27;6.10;99.90
19781;DHT22;10050;55.492;13.506;2023-12-20T10:42:53;6.10;99.90
19781;DHT22;10050;55.492;13.506;2023-12-20T10:45:19;6.00;99.90
19781;DHT22;10050;55.492;13.506;2023-12-20T10:47:46;6.00;99.90
19781;DHT22;10050;55.492;13.506;2023-12-20T10:50:12;6.00;99.90
19781;DHT22;10050;55.492;13.506;2023-12-20T10:52:38;5.90;99.90
19781;DHT22;10050;55.492;13.506;2023-12-20T10:55:04;5.90;99.90
19781;DHT22;10050;55.492;13.506;2023-12-20T10:57:30;5.90;99.90
19781;DHT22;10050;55.492;13.506;2023-12-20T11:00:01;5.90;99.90
19781;DHT22;10050;55.492;13.506;2023-12-20T11:02:32;5.80;99.90
19781;DHT22;10050;55.492;13.506;2023-12-20T11:05:25;5.80;99.90
19781;DHT22;10050;55.492;13.506;2023-12-20T11:08:00;5.80;99.90
19781;DHT22;10050;55.492;13.506;2023-12-20T11:10:42;5.70;99.90
19781;DHT22;10050;55.492;13.506;2023-12-20T11:13:15;5.80;99.90
19781;DHT22;10050;55.492;13.506;2023-12-20T11:15:43;5.70;99.90
19781;DHT22;10050;55.492;13.506;2023-12-20T11:18:09;5.70;99.90
19781;DHT22;10050;55.492;13.506;2023-12-20T11:20:39;5.60;99.90
19781;DHT22;10050;55.492;13.506;2023-12-20T11:23:05;5.70;99.90
19781;DHT22;10050;55.492;13.506;2023-12-20T11:25:58;5.70;99.90
19781;DHT22;10050;55.492;13.506;2023-12-20T11:28:27;5.70;99.90
19781;DHT22;10050;55.492;13.506;2023-12-20T11:31:00;5.60;99.90
19781;DHT22;10050;55.492;13.506;2023-12-20T11:33:30;5.60;99.90
19781;DHT22;10050;55.492;13.506;2023-12-20T11:35:57;5.50;99.90
19781;DHT22;10050;55.492;13.506;2023-12-20T11:38:23;5.60;99.90
19781;DHT22;10050;55.492;13.506;2023-12-20T11:40:50;5.60;99.90
19781;DHT22;10050;55.492;13.506;2023-12-20T11:43:44;5.50;99.90
19781;DHT22;10050;55.492;13.506;2023-12-20T11:46:10;5.50;99.90
19781;DHT22;10050;55.492;13.506;2023-12-20T11:51:44;5.50;99.90
19781;DHT22;10050;55.492;13.506;2023-12-20T11:54:10;5.50;99.90
19781;DHT22;10050;55.492;13.506;2023-12-20T11:56:36;5.40;99.90
19781;DHT22;10050;55.492;13.506;2023-12-20T11:59:02;5.40;99.90
19781;DHT22;10050;55.492;13.506;2023-12-20T12:01:28;5.30;99.90
19781;DHT22;10050;55.492;13.506;2023-12-20T12:04:04;5.30;99.90
19781;DHT22;10050;55.492;13.506;2023-12-20T12:06:29;5.30;99.90
19781;DHT22;10050;55.492;13.506;2023-12-20T12:08:55;5.20;99.90
19781;DHT22;10050;55.492;13.506;2023-12-20T12:11:22;5.20;99.90
19781;DHT22;10050;55.492;13.506;2023-12-20T12:13:48;5.10;99.90
19781;DHT22;10050;55.492;13.506;2023-12-20T12:16:17;5.10;99.90
19781;DHT22;10050;55.492;13.506;2023-12-20T12:18:44;5.20;99.90
19781;DHT22;10050;55.492;13.506;2023-12-20T12:21:10;5.20;99.90
19781;DHT22;10050;55.492;13.506;2023-12-20T12:23:36;5.20;99.90
19781;DHT22;10050;55.492;13.506;2023-12-20T12:26:04;5.20;99.90
19781;DHT22;10050;55.492;13.506;2023-12-20T12:28:29;5.20;99.90
19781;DHT22;10050;55.492;13.506;2023-12-20T12:31:00;5.20;99.90
19781;DHT22;10050;55.492;13.506;2023-12-20T12:33:26;5.20;99.90
19781;DHT22;10050;55.492;13.506;2023-12-20T12:35:52;5.20;99.90
19781;DHT22;10050;55.492;13.506;2023-12-20T12:38:21;5.20;99.90
19781;DHT22;10050;55.492;13.506;2023-12-20T12:40:47;5.10;99.90
19781;DHT22;10050;55.492;13.506;2023-12-20T12:43:13;5.10;99.90
19781;DHT22;10050;55.492;13.506;2023-12-20T12:45:38;5.10;99.90
19781;DHT22;10050;55.492;13.506;2023-12-20T12:48:05;5.10;99.90
19781;DHT22;10050;55.492;13.506;2023-12-20T12:50:31;5.10;99.90
19781;DHT22;10050;55.492;13.506;2023-12-20T12:52:56;5.10;99.90
19781;DHT22;10050;55.492;13.506;2023-12-20T12:55:22;5.20;99.90
19781;DHT22;10050;55.492;13.506;2023-12-20T12:57:48;5.20;99.90
19781;DHT22;10050;55.492;13.506;2023-12-20T13:00:14;5.20;99.90
19781;DHT22;10050;55.492;13.506;2023-12-20T13:02:39;5.10;99.90
19781;DHT22;10050;55.492;13.506;2023-12-20T13:05:08;5.10;99.90
19781;DHT22;10050;55.492;13.506;2023-12-20T13:07:34;5.20;99.90
19781;DHT22;10050;55.492;13.506;2023-12-20T13:10:00;5.20;99.90
19781;DHT22;10050;55.492;13.506;2023-12-20T13:12:26;5.20;99.90
19781;DHT22;10050;55.492;13.506;2023-12-20T13:14:52;5.10;99.90
19781;DHT22;10050;55.492;13.506;2023-12-20T13:17:19;5.10;99.90
19781;DHT22;10050;55.492;13.506;2023-12-20T13:19:45;5.10;99.90
19781;DHT22;10050;55.492;13.506;2023-12-20T13:22:10;5.10;99.90
19781;DHT22;10050;55.492;13.506;2023-12-20T13:24:36;5.10;99.90
19781;DHT22;10050;55.492;13.506;2023-12-20T13:27:02;5.10;99.90
19781;DHT22;10050;55.492;13.506;2023-12-20T13:29:30;5.10;99.90
19781;DHT22;10050;55.492;13.506;2023-12-20T13:31:56;5.10;99.90
19781;DHT22;10050;55.492;13.506;2023-12-20T13:34:23;5.10;99.90
19781;DHT22;10050;55.492;13.506;2023-12-20T13:36:48;5.10;99.90
19781;DHT22;10050;55.492;13.506;2023-12-20T13:39:16;5.10;99.90
19781;DHT22;10050;55.492;13.506;2023-12-20T13:41:42;5.00;99.90
19781;DHT22;10050;55.492;13.506;2023-12-20T13:44:08;5.00;99.90
19781;DHT22;10050;55.492;13.506;2023-12-20T13:46:33;5.00;99.90
19781;DHT22;10050;55.492;13.506;2023-12-20T13:48:59;5.00;99.90
19781;DHT22;10050;55.492;13.506;2023-12-20T13:51:25;5.00;99.90
19781;DHT22;10050;55.492;13.506;2023-12-20T13:53:50;5.00;99.90
19781;DHT22;10050;55.492;13.506;2023-12-20T13:56:16;5.00;99.90
19781;DHT22;10050;55.492;13.506;2023-12-20T13:58:42;5.00;99.90
19781;DHT22;10050;55.492;13.506;2023-12-20T14:01:09;5.00;99.90
19781;DHT22;10050;55.492;13.506;2023-12-20T14:03:35;5.00;99.90
19781;DHT22;10050;55.492;13.506;2023-12-20T14:06:01;4.90;99.90
19781;DHT22;10050;55.492;13.506;2023-12-20T14:08:27;4.90;99.90
19781;DHT22;10050;55.492;13.506;2023-12-20T14:10:53;4.80;99.90
19781;DHT22;10050;55.492;13.506;2023-12-20T14:13:19;4.80;99.90
19781;DHT22;10050;55.492;13.506;2023-12-20T14:15:44;4.80;99.90
19781;DHT22;10050;55.492;13.506;2023-12-20T14:18:10;4.80;99.90
19781;DHT22;10050;55.492;13.506;2023-12-20T14:20:37;4.70;99.90
19781;DHT22;10050;55.492;13.506;2023-12-20T14:23:05;4.70;99.90
19781;DHT22;10050;55.492;13.506;2023-12-20T14:25:30;4.70;99.90
19781;DHT22;10050;55.492;13.506;2023-12-20T14:27:59;4.70;99.90
19781;DHT22;10050;55.492;13.506;2023-12-20T14:30:25;4.70;99.90
19781;DHT22;10050;55.492;13.506;2023-12-20T14:32:50;4.70;99.90
19781;DHT22;10050;55.492;13.506;2023-12-20T14:35:16;4.70;99.90
19781;DHT22;10050;55.492;13.506;2023-12-20T14:37:42;4.70;99.90
19781;DHT22;10050;55.492;13.506;2023-12-20T14:40:08;4.70;99.90
19781;DHT22;10050;55.492;13.506;2023-12-20T14:42:44;4.70;99.90
19781;DHT22;10050;55.492;13.506;2023-12-20T14:45:09;4.70;99.90
19781;DHT22;10050;55.492;13.506;2023-12-20T14:47:35;4.70;99.90
19781;DHT22;10050;55.492;13.506;2023-12-20T14:50:05;4.70;99.90
19781;DHT22;10050;55.492;13.506;2023-12-20T14:52:32;4.70;99.90
19781;DHT22;10050;55.492;13.506;2023-12-20T14:54:59;4.60;99.90
19781;DHT22;10050;55.492;13.506;2023-12-20T14:57:25;4.60;99.90
19781;DHT22;10050;55.492;13.506;2023-12-20T14:59:51;4.60;99.90
19781;DHT22;10050;55.492;13.506;2023-12-20T15:02:17;4.60;99.90
19781;DHT22;10050;55.492;13.506;2023-12-20T15:04:43;4.50;99.90
19781;DHT22;10050;55.492;13.506;2023-12-20T15:07:08;4.50;99.90
19781;DHT22;10050;55.492;13.506;2023-12-20T15:09:34;4.50;99.90
19781;DHT22;10050;55.492;13.506;2023-12-20T15:12:00;4.40;99.90
19781;DHT22;10050;55.492;13.506;2023-12-20T15:14:26;4.40;99.90
19781;DHT22;10050;55.492;13.506;2023-12-20T15:16:52;4.40;99.90
19781;DHT22;10050;55.492;13.506;2023-12-20T15:19:17;4.30;99.90
19781;DHT22;10050;55.492;13.506;2023-12-20T15:21:43;4.30;99.90
19781;DHT22;10050;55.492;13.506;2023-12-20T15:24:09;4.30;99.90
19781;DHT22;10050;55.492;13.506;2023-12-20T15:26:42;4.30;99.90
19781;DHT22;10050;55.492;13.506;2023-12-20T15:29:09;4.20;99.90